createdAt,value
2022-12-07T05:01:02.575Z,2.67
2022-12-07T05:02:02.487Z,2.66
2022-12-07T05:03:02.420Z,2.64
2022-12-07T05:04:03.133Z,2.63
2022-12-07T05:05:02.397Z,2.60
2022-12-07T05:06:02.361Z,2.59
2022-12-07T05:07:02.431Z,2.56
2022-12-07T05:08:02.402Z,2.52
2022-12-07T05:09:02.361Z,2.46
2022-12-07T05:10:02.740Z,2.43
2022-12-07T05:11:02.330Z,2.41
2022-12-07T05:12:02.304Z,2.39
2022-12-07T05:13:02.345Z,2.35
2022-12-07T05:14:02.306Z,2.31
2022-12-07T05:15:02.276Z,2.27
2022-12-07T05:16:02.263Z,2.25
2022-12-07T05:17:09.252Z,2.21
2022-12-07T05:18:02.214Z,2.18
2022-12-07T05:19:02.294Z,2.17
2022-12-07T05:20:02.653Z,2.16
2022-12-07T05:21:02.229Z,2.14
2022-12-07T05:22:02.174Z,2.14
2022-12-07T05:23:02.190Z,2.16
2022-12-07T05:24:02.147Z,2.20
2022-12-07T05:25:02.180Z,2.21
2022-12-07T05:26:02.120Z,2.24
2022-12-07T05:27:02.124Z,2.28
2022-12-07T05:28:02.088Z,2.34
2022-12-07T05:29:02.193Z,2.36
2022-12-07T05:30:02.516Z,2.41
2022-12-07T05:31:02.082Z,2.45
2022-12-07T05:32:02.076Z,2.48
2022-12-07T05:33:02.043Z,2.49
2022-12-07T05:34:02.034Z,2.48
2022-12-07T05:35:02.086Z,2.52
2022-12-07T05:36:01.993Z,2.52
2022-12-07T05:37:02.003Z,2.53
2022-12-07T05:38:01.964Z,2.53
2022-12-07T05:39:01.986Z,2.53
2022-12-07T05:40:02.270Z,2.56
2022-12-07T05:41:02.164Z,2.57
2022-12-07T05:42:01.915Z,2.59
2022-12-07T05:43:04.706Z,2.59
2022-12-07T05:44:01.897Z,2.61
2022-12-07T05:45:01.886Z,2.63
2022-12-07T05:46:01.932Z,2.66
2022-12-07T05:47:02.228Z,2.67
2022-12-07T05:48:01.863Z,2.67
2022-12-07T05:49:01.841Z,2.67
2022-12-07T05:50:02.240Z,2.67
2022-12-07T05:51:01.821Z,2.66
2022-12-07T05:52:01.839Z,2.64
2022-12-07T05:53:01.789Z,2.64
2022-12-07T05:54:01.758Z,2.63
2022-12-07T05:55:01.815Z,2.61
2022-12-07T05:56:01.731Z,2.60
2022-12-07T05:57:01.747Z,2.59
2022-12-07T05:58:01.953Z,2.57
2022-12-07T05:59:01.717Z,2.54
2022-12-07T06:00:01.973Z,2.53
2022-12-07T06:01:01.694Z,2.52
2022-12-07T06:02:01.741Z,2.49
2022-12-07T06:03:01.810Z,2.46
2022-12-07T06:04:01.676Z,2.45
2022-12-07T06:05:01.644Z,2.43
2022-12-07T06:06:01.653Z,2.39
2022-12-07T06:07:01.617Z,2.38
2022-12-07T06:08:05.914Z,2.38
2022-12-07T06:09:01.588Z,2.35
2022-12-07T06:10:02.093Z,2.34
2022-12-07T06:11:01.595Z,2.30
2022-12-07T06:12:01.524Z,2.28
2022-12-07T06:13:01.538Z,2.27
2022-12-07T06:14:01.512Z,2.25
2022-12-07T06:15:01.504Z,2.24
2022-12-07T06:16:01.506Z,2.25
2022-12-07T06:17:01.552Z,2.25
2022-12-07T06:18:01.452Z,2.25
2022-12-07T06:19:01.496Z,2.27
2022-12-07T06:20:01.833Z,2.27
2022-12-07T06:21:01.432Z,2.30
2022-12-07T06:22:01.605Z,2.31
2022-12-07T06:23:01.403Z,2.30
2022-12-07T06:24:01.379Z,2.31
2022-12-07T06:25:06.985Z,2.30
2022-12-07T06:26:02.357Z,2.34
2022-12-07T06:27:01.360Z,2.31
2022-12-07T06:28:01.368Z,2.34
2022-12-07T06:29:01.329Z,2.31
2022-12-07T06:30:01.688Z,2.31
2022-12-07T06:31:01.310Z,2.31
2022-12-07T06:32:01.304Z,2.34
2022-12-07T06:33:01.281Z,2.36
2022-12-07T06:34:01.246Z,2.38
2022-12-07T06:35:01.246Z,2.38
2022-12-07T06:36:01.344Z,2.39
2022-12-07T06:37:01.229Z,2.41
2022-12-07T06:38:01.194Z,2.39
2022-12-07T06:39:01.212Z,2.41
2022-12-07T06:40:01.444Z,2.43
2022-12-07T06:41:01.178Z,2.45
2022-12-07T06:42:01.472Z,2.46
2022-12-07T06:43:01.146Z,2.49
2022-12-07T06:44:01.114Z,2.48
2022-12-07T06:45:01.135Z,2.49
2022-12-07T06:46:01.132Z,2.54
2022-12-07T06:47:38.536Z,2.56
2022-12-07T06:48:02.272Z,2.57
2022-12-07T06:49:01.084Z,2.59
2022-12-07T06:50:01.540Z,2.59
2022-12-07T06:51:01.041Z,2.61
2022-12-07T06:52:01.012Z,2.61
2022-12-07T06:53:01.029Z,2.64
2022-12-07T06:54:01.023Z,2.66
2022-12-07T06:55:00.989Z,2.67
2022-12-07T06:56:01.389Z,2.67
2022-12-07T06:57:00.968Z,2.69
2022-12-07T06:58:00.959Z,2.72
2022-12-07T06:59:00.957Z,2.72
2022-12-07T07:00:01.402Z,2.74
2022-12-07T07:01:00.982Z,2.74
2022-12-07T07:02:01.023Z,2.74
2022-12-07T07:03:00.917Z,2.74
2022-12-07T07:04:01.125Z,2.74
2022-12-07T07:05:00.868Z,2.75
2022-12-07T07:06:00.871Z,2.75
2022-12-07T07:07:00.855Z,2.77
2022-12-07T07:08:22.253Z,2.75
2022-12-07T07:09:01.934Z,2.75
2022-12-07T07:10:01.061Z,2.77
2022-12-07T07:11:00.836Z,2.78
2022-12-07T07:12:00.755Z,2.79
2022-12-07T07:13:00.765Z,2.78
2022-12-07T07:14:00.745Z,2.78
2022-12-07T07:15:00.744Z,2.77
2022-12-07T07:16:00.709Z,2.78
2022-12-07T07:17:00.963Z,2.79
2022-12-07T07:18:04.451Z,2.79
2022-12-07T07:19:01.692Z,2.81
2022-12-07T07:20:00.857Z,2.78
2022-12-07T07:21:00.662Z,2.78
2022-12-07T07:22:00.630Z,2.78
2022-12-07T07:23:00.831Z,2.79
2022-12-07T07:24:00.605Z,2.81
2022-12-07T07:25:00.631Z,2.79
2022-12-07T07:26:00.579Z,2.81
2022-12-07T07:27:00.589Z,2.85
2022-12-07T07:28:00.553Z,2.90
2022-12-07T07:29:00.769Z,2.90
2022-12-07T07:30:00.937Z,2.95
2022-12-07T07:31:00.584Z,2.95
2022-12-07T07:32:06.266Z,2.96
2022-12-07T07:33:01.507Z,2.99
2022-12-07T07:34:00.477Z,3.02
2022-12-07T07:35:00.527Z,3.06
2022-12-07T07:36:00.447Z,3.08
2022-12-07T07:37:00.453Z,3.10
2022-12-07T07:38:00.427Z,3.11
2022-12-07T07:39:00.484Z,3.14
2022-12-07T07:40:00.898Z,3.15
2022-12-07T07:41:00.545Z,3.18
2022-12-07T07:42:00.388Z,3.18
2022-12-07T07:43:00.385Z,3.18
2022-12-07T07:44:00.355Z,3.21
2022-12-07T07:45:00.354Z,3.23
2022-12-07T07:46:00.359Z,3.26
2022-12-07T07:47:01.274Z,3.26
2022-12-07T07:48:00.304Z,3.31
2022-12-07T07:49:00.317Z,3.32
2022-12-07T07:50:00.553Z,3.32
2022-12-07T07:51:00.297Z,3.35
2022-12-07T07:52:00.266Z,3.39
2022-12-07T07:53:00.311Z,3.42
2022-12-07T07:54:00.232Z,3.45
2022-12-07T07:55:00.232Z,3.48
2022-12-07T07:56:00.230Z,3.50
2022-12-07T07:57:00.198Z,3.52
2022-12-07T07:58:00.213Z,3.55
2022-12-07T07:59:00.578Z,3.60
2022-12-07T08:00:00.494Z,3.65
2022-12-07T08:01:00.252Z,3.68
2022-12-07T08:02:00.214Z,3.72
2022-12-07T08:03:00.118Z,3.76
2022-12-07T08:04:00.118Z,3.79
2022-12-07T08:05:00.236Z,3.84
2022-12-07T08:06:00.098Z,3.84
2022-12-07T08:07:00.075Z,3.86
2022-12-07T08:08:00.193Z,3.88
2022-12-07T08:09:00.083Z,3.90
2022-12-07T08:10:00.379Z,3.93
2022-12-07T08:11:00.078Z,3.96
2022-12-07T08:12:00.019Z,3.97
2022-12-07T08:12:59.985Z,3.97
2022-12-07T08:14:00.001Z,3.97
2022-12-07T08:14:59.981Z,3.93
2022-12-07T08:16:00.074Z,3.94
2022-12-07T08:17:00.039Z,3.91
2022-12-07T08:17:59.978Z,3.91
2022-12-07T08:18:59.914Z,3.91
2022-12-07T08:20:00.419Z,3.91
2022-12-07T08:20:59.890Z,3.91
2022-12-07T08:22:00.072Z,3.93
2022-12-07T08:22:59.874Z,3.94
2022-12-07T08:23:59.886Z,3.94
2022-12-07T08:24:59.831Z,3.97
2022-12-07T08:25:59.841Z,3.98
2022-12-07T08:26:59.811Z,3.96
2022-12-07T08:27:59.889Z,3.94
2022-12-07T08:28:59.782Z,3.96
2022-12-07T08:30:00.153Z,3.97
2022-12-07T08:30:59.819Z,3.96
2022-12-07T08:31:59.759Z,3.98
2022-12-07T08:32:59.730Z,3.97
2022-12-07T08:33:59.917Z,3.94
2022-12-07T08:34:59.710Z,3.94
2022-12-07T08:35:59.724Z,3.94
2022-12-07T08:36:59.688Z,3.93
2022-12-07T08:37:59.687Z,3.90
2022-12-07T08:39:30.267Z,3.90
2022-12-07T08:40:01.089Z,3.86
2022-12-07T08:40:59.635Z,3.80
2022-12-07T08:41:59.657Z,3.83
2022-12-07T08:42:59.607Z,3.86
2022-12-07T08:43:59.622Z,3.87
2022-12-07T08:44:59.587Z,3.91
2022-12-07T08:45:59.709Z,3.93
2022-12-07T08:46:59.565Z,3.97
2022-12-07T08:47:59.594Z,3.97
2022-12-07T08:48:59.524Z,3.96
2022-12-07T08:49:59.775Z,3.98
2022-12-07T08:50:59.503Z,4.00
2022-12-07T08:51:59.562Z,4.06
2022-12-07T08:52:59.513Z,4.11
2022-12-07T08:53:59.491Z,4.11
2022-12-07T08:54:59.460Z,4.15
2022-12-07T08:55:59.472Z,4.11
2022-12-07T08:57:00.110Z,4.08
2022-12-07T08:57:59.500Z,4.08
2022-12-07T08:58:59.407Z,4.05
2022-12-07T08:59:59.618Z,4.05
2022-12-07T09:00:59.380Z,4.08
2022-12-07T09:01:59.459Z,4.09
2022-12-07T09:02:59.360Z,4.11
2022-12-07T09:03:59.398Z,4.12
2022-12-07T09:04:59.328Z,4.15
2022-12-07T09:05:59.552Z,4.15
2022-12-07T09:06:59.423Z,4.18
2022-12-07T09:07:59.326Z,4.14
2022-12-07T09:08:59.278Z,4.15
2022-12-07T09:09:59.688Z,4.23
2022-12-07T09:10:59.265Z,4.27
2022-12-07T09:11:59.259Z,4.30
2022-12-07T09:12:59.226Z,4.33
2022-12-07T09:13:59.237Z,4.33
2022-12-07T09:14:59.204Z,4.40
2022-12-07T09:15:59.658Z,4.44
2022-12-07T09:16:59.177Z,4.42
2022-12-07T09:17:59.192Z,4.44
2022-12-07T09:18:59.147Z,4.44
2022-12-07T09:19:59.178Z,4.48
2022-12-07T09:20:59.132Z,4.52
2022-12-07T09:21:59.202Z,4.55
2022-12-07T09:22:59.106Z,4.60
2022-12-07T09:23:59.124Z,4.62
2022-12-07T09:24:59.075Z,4.65
2022-12-07T09:25:59.095Z,4.65
2022-12-07T09:26:59.052Z,4.66
2022-12-07T09:27:59.135Z,4.70
2022-12-07T09:28:59.049Z,4.72
2022-12-07T09:29:59.031Z,4.70
2022-12-07T09:31:22.866Z,4.73
2022-12-07T09:32:00.031Z,4.72
2022-12-07T09:32:58.979Z,4.82
2022-12-07T09:33:59.237Z,4.85
2022-12-07T09:34:58.950Z,4.91
2022-12-07T09:35:58.987Z,4.89
2022-12-07T09:36:58.942Z,4.91
2022-12-07T09:37:58.945Z,4.91
2022-12-07T09:38:58.900Z,4.97
2022-12-07T09:39:58.947Z,5.03
2022-12-07T09:40:58.879Z,5.10
2022-12-07T09:41:58.887Z,5.10
2022-12-07T09:42:58.968Z,5.10
2022-12-07T09:43:58.847Z,5.09
2022-12-07T09:44:58.836Z,5.12
2022-12-07T09:45:58.974Z,5.21
2022-12-07T09:46:58.833Z,5.24
2022-12-07T09:47:58.808Z,5.20
2022-12-07T09:48:58.766Z,5.22
2022-12-07T09:49:58.785Z,5.27
2022-12-07T09:50:58.747Z,5.28
2022-12-07T09:51:58.836Z,5.30
2022-12-07T09:52:58.721Z,5.30
2022-12-07T09:53:58.746Z,5.33
2022-12-07T09:54:58.697Z,5.30
2022-12-07T09:55:58.703Z,5.27
2022-12-07T09:56:58.662Z,5.30
2022-12-07T09:57:58.737Z,5.33
2022-12-07T09:58:58.649Z,5.35
2022-12-07T09:59:58.707Z,5.36
2022-12-07T10:00:58.611Z,5.40
2022-12-07T10:01:58.694Z,5.43
2022-12-07T10:02:58.591Z,5.49
2022-12-07T10:03:58.630Z,5.51
2022-12-07T10:04:58.661Z,5.57
2022-12-07T10:05:58.575Z,5.60
2022-12-07T10:06:58.539Z,5.60
2022-12-07T10:07:58.625Z,5.60
2022-12-07T10:08:58.541Z,5.54
2022-12-07T10:09:58.538Z,5.54
2022-12-07T10:10:58.479Z,5.56
2022-12-07T10:11:58.499Z,5.54
2022-12-07T10:12:58.468Z,5.60
2022-12-07T10:13:58.508Z,5.64
2022-12-07T10:15:07.341Z,5.75
2022-12-07T10:16:06.324Z,5.81
2022-12-07T10:16:59.408Z,5.83
2022-12-07T10:17:58.417Z,5.83
2022-12-07T10:18:58.396Z,5.86
2022-12-07T10:19:58.579Z,5.86
2022-12-07T10:20:58.357Z,5.91
2022-12-07T10:21:58.367Z,5.89
2022-12-07T10:22:58.335Z,5.89
2022-12-07T10:23:58.346Z,5.85
2022-12-07T10:24:58.305Z,5.90
2022-12-07T10:25:58.375Z,5.90
2022-12-07T10:26:58.285Z,5.86
2022-12-07T10:27:58.285Z,5.82
2022-12-07T10:28:58.255Z,5.82
2022-12-07T10:29:58.256Z,5.79
2022-12-07T10:30:58.356Z,5.83
2022-12-07T10:31:58.287Z,5.86
2022-12-07T10:32:58.237Z,5.90
2022-12-07T10:33:58.213Z,5.93
2022-12-07T10:34:58.182Z,5.97
2022-12-07T10:35:58.193Z,6.00
2022-12-07T10:36:58.142Z,6.03
2022-12-07T10:37:58.191Z,6.06
2022-12-07T10:38:58.124Z,5.99
2022-12-07T10:39:58.182Z,5.97
2022-12-07T10:40:58.092Z,6.00
2022-12-07T10:41:58.140Z,5.94
2022-12-07T10:42:58.080Z,5.93
2022-12-07T10:43:58.095Z,5.91
2022-12-07T10:44:58.274Z,5.93
2022-12-07T10:46:03.768Z,5.97
2022-12-07T10:46:59.078Z,6.08
2022-12-07T10:47:58.038Z,6.14
2022-12-07T10:48:58.011Z,6.19
2022-12-07T10:49:58.082Z,6.17
2022-12-07T10:50:58.237Z,6.21
2022-12-07T10:51:58.042Z,6.22
2022-12-07T10:52:57.950Z,6.22
2022-12-07T10:53:57.977Z,6.25
2022-12-07T10:54:57.934Z,6.21
2022-12-07T10:55:57.927Z,6.11
2022-12-07T10:56:58.364Z,6.01
2022-12-07T10:57:57.916Z,5.99
2022-12-07T10:58:57.878Z,6.04
2022-12-07T10:59:57.877Z,6.09
2022-12-07T11:00:57.880Z,6.15
2022-12-07T11:01:57.866Z,6.21
2022-12-07T11:02:57.997Z,6.27
2022-12-07T11:03:57.816Z,6.31
2022-12-07T11:04:57.792Z,6.30
2022-12-07T11:05:57.803Z,6.27
2022-12-07T11:06:57.782Z,6.34
2022-12-07T11:07:57.834Z,6.34
2022-12-07T11:08:57.880Z,6.36
2022-12-07T11:10:10.005Z,6.28
2022-12-07T11:10:58.712Z,6.28
2022-12-07T11:11:57.736Z,6.21
2022-12-07T11:12:57.693Z,6.19
2022-12-07T11:13:57.702Z,6.22
2022-12-07T11:14:57.861Z,6.27
2022-12-07T11:15:57.766Z,6.27
2022-12-07T11:17:05.159Z,6.28
2022-12-07T11:17:57.648Z,6.18
2022-12-07T11:18:58.358Z,6.09
2022-12-07T11:19:57.675Z,6.03
2022-12-07T11:20:57.606Z,6.04
2022-12-07T11:21:57.603Z,6.12
2022-12-07T11:22:57.586Z,6.12
2022-12-07T11:23:57.577Z,6.11
2022-12-07T11:24:57.559Z,6.11
2022-12-07T11:25:57.615Z,6.06
2022-12-07T11:26:57.522Z,6.04
2022-12-07T11:27:57.534Z,5.96
2022-12-07T11:28:57.501Z,5.90
2022-12-07T11:29:57.505Z,5.89
2022-12-07T11:30:57.465Z,5.90
2022-12-07T11:31:58.291Z,5.93
2022-12-07T11:32:57.463Z,5.94
2022-12-07T11:33:57.444Z,5.99
2022-12-07T11:34:57.467Z,5.96
2022-12-07T11:35:57.413Z,6.00
2022-12-07T11:36:57.389Z,6.06
2022-12-07T11:37:57.852Z,6.12
2022-12-07T11:38:57.360Z,6.12
2022-12-07T11:39:57.387Z,6.14
2022-12-07T11:40:57.345Z,6.17
2022-12-07T11:41:57.350Z,6.19
2022-12-07T11:42:57.321Z,6.22
2022-12-07T11:43:57.392Z,6.25
2022-12-07T11:44:57.298Z,6.21
2022-12-07T11:45:57.331Z,6.18
2022-12-07T11:46:57.323Z,6.18
2022-12-07T11:47:57.331Z,6.22
2022-12-07T11:48:57.714Z,6.25
2022-12-07T11:49:57.559Z,6.30
2022-12-07T11:50:58.289Z,6.25
2022-12-07T11:51:57.260Z,6.31
2022-12-07T11:52:57.276Z,6.34
2022-12-07T11:53:57.187Z,6.41
2022-12-07T11:54:57.162Z,6.44
2022-12-07T11:55:57.217Z,6.48
2022-12-07T11:56:57.129Z,6.54
2022-12-07T11:57:57.154Z,6.54
2022-12-07T11:58:57.134Z,6.58
2022-12-07T11:59:57.126Z,6.64
2022-12-07T12:00:57.111Z,6.66
2022-12-07T12:01:57.173Z,6.66
2022-12-07T12:02:57.103Z,6.69
2022-12-07T12:03:57.110Z,6.71
2022-12-07T12:04:57.024Z,6.76
2022-12-07T12:05:57.126Z,6.80
2022-12-07T12:06:57.288Z,6.81
2022-12-07T12:09:57.965Z,6.87
2022-12-07T12:10:56.985Z,6.89
2022-12-07T12:14:57.914Z,6.99
2022-12-07T12:15:56.902Z,6.97
2022-12-07T12:16:56.946Z,6.97
2022-12-07T12:17:57.157Z,6.97
2022-12-07T12:18:56.861Z,6.88
2022-12-07T12:19:56.834Z,6.87
2022-12-07T12:20:56.890Z,6.87
2022-12-07T12:21:58.360Z,6.89
2022-12-07T12:22:56.859Z,6.89
2022-12-07T12:23:57.141Z,6.87
2022-12-07T12:24:56.811Z,6.88
2022-12-07T12:25:56.804Z,6.80
2022-12-07T12:26:56.796Z,6.81
2022-12-07T12:27:56.776Z,6.80
2022-12-07T12:28:56.752Z,6.74
2022-12-07T12:29:56.802Z,6.70
2022-12-07T12:30:56.712Z,6.73
2022-12-07T12:31:56.843Z,6.76
2022-12-07T12:32:56.680Z,6.79
2022-12-07T12:33:56.660Z,6.79
2022-12-07T12:34:56.667Z,6.77
2022-12-07T12:35:56.749Z,6.74
2022-12-07T12:36:57.846Z,6.73
2022-12-07T12:37:56.611Z,6.73
2022-12-07T12:38:56.679Z,6.73
2022-12-07T12:39:56.586Z,6.64
2022-12-07T12:40:56.596Z,6.54
2022-12-07T12:41:56.586Z,6.46
2022-12-07T12:42:56.799Z,6.48
2022-12-07T12:43:56.527Z,6.49
2022-12-07T12:44:56.550Z,6.44
2022-12-07T12:45:56.554Z,6.37
2022-12-07T12:46:56.550Z,6.38
2022-12-07T12:47:56.495Z,6.36
2022-12-07T12:48:57.181Z,6.36
2022-12-07T12:49:56.476Z,6.37
2022-12-07T12:50:56.468Z,6.30
2022-12-07T12:51:56.452Z,6.28
2022-12-07T12:52:56.568Z,6.27
2022-12-07T12:53:56.420Z,6.25
2022-12-07T12:54:56.724Z,6.17
2022-12-07T12:55:56.384Z,6.11
2022-12-07T12:56:56.404Z,6.06
2022-12-07T12:57:56.353Z,6.06
2022-12-07T12:58:56.362Z,6.06
2022-12-07T12:59:56.374Z,6.06
2022-12-07T13:00:57.319Z,6.06
2022-12-07T13:01:56.380Z,6.08
2022-12-07T13:02:56.407Z,6.04
2022-12-07T13:03:56.289Z,6.06
2022-12-07T13:04:56.280Z,6.06
2022-12-07T13:05:56.271Z,6.06
2022-12-07T13:06:56.783Z,6.06
2022-12-07T13:07:56.252Z,6.06
2022-12-07T13:08:56.242Z,6.09
2022-12-07T13:09:56.191Z,6.11
2022-12-07T13:10:56.202Z,6.12
2022-12-07T13:11:56.184Z,6.12
2022-12-07T13:12:56.304Z,6.12
2022-12-07T13:13:56.159Z,6.11
2022-12-07T13:14:56.170Z,6.08
2022-12-07T13:15:56.147Z,6.08
2022-12-07T13:16:56.464Z,6.11
2022-12-07T13:17:56.122Z,6.09
2022-12-07T13:18:56.168Z,6.08
2022-12-07T13:19:56.119Z,6.08
2022-12-07T13:20:56.117Z,6.04
2022-12-07T13:21:56.047Z,6.08
2022-12-07T13:22:56.057Z,6.08
2022-12-07T13:23:56.068Z,6.04
2022-12-07T13:24:56.157Z,6.04
2022-12-07T13:25:55.987Z,6.00
2022-12-07T13:26:56.136Z,5.99
2022-12-07T13:27:55.974Z,6.00
2022-12-07T13:28:55.996Z,5.97
2022-12-07T13:29:55.952Z,6.00
2022-12-07T13:30:55.989Z,6.00
2022-12-07T13:31:55.962Z,5.99
2022-12-07T13:32:55.959Z,5.96
2022-12-07T13:33:55.884Z,5.99
2022-12-07T13:34:55.896Z,5.97
2022-12-07T13:35:55.884Z,5.97
2022-12-07T13:36:55.909Z,5.93
2022-12-07T13:37:56.319Z,5.94
2022-12-07T13:38:55.877Z,5.96
2022-12-07T13:39:55.813Z,5.94
2022-12-07T13:40:55.813Z,5.93
2022-12-07T13:41:55.795Z,5.91
2022-12-07T13:42:55.781Z,5.90
2022-12-07T13:43:55.909Z,5.89
2022-12-07T13:44:55.764Z,5.86
2022-12-07T13:45:55.842Z,5.89
2022-12-07T13:46:55.742Z,5.85
2022-12-07T13:47:55.703Z,5.85
2022-12-07T13:48:55.711Z,5.85
2022-12-07T13:49:56.164Z,5.85
2022-12-07T13:50:55.690Z,5.86
2022-12-07T13:51:55.689Z,5.83
2022-12-07T13:52:55.650Z,5.83
2022-12-07T13:53:55.623Z,5.82
2022-12-07T13:54:55.693Z,5.79
2022-12-07T13:55:55.716Z,5.81
2022-12-07T13:56:55.619Z,5.82
2022-12-07T13:57:55.566Z,5.82
2022-12-07T13:58:55.606Z,5.82
2022-12-07T13:59:55.548Z,5.79
2022-12-07T14:00:55.655Z,5.79
2022-12-07T14:01:55.656Z,5.75
2022-12-07T14:02:55.582Z,5.74
2022-12-07T14:03:55.506Z,5.67
2022-12-07T14:04:55.514Z,5.60
2022-12-07T14:05:55.485Z,5.57
2022-12-07T14:06:55.498Z,5.57
2022-12-07T14:07:55.569Z,5.60
2022-12-07T14:08:58.689Z,5.60
2022-12-07T14:09:55.441Z,5.63
2022-12-07T14:10:55.438Z,5.63
2022-12-07T14:11:55.386Z,5.56
2022-12-07T14:12:55.469Z,5.51
2022-12-07T14:13:55.364Z,5.48
2022-12-07T14:14:55.366Z,5.46
2022-12-07T14:15:55.332Z,5.40
2022-12-07T14:16:55.408Z,5.31
2022-12-07T14:17:55.353Z,5.25
2022-12-07T14:18:55.453Z,5.24
2022-12-07T14:19:55.295Z,5.27
2022-12-07T14:20:55.352Z,5.27
2022-12-07T14:21:55.300Z,5.28
2022-12-07T14:22:55.284Z,5.27
2022-12-07T14:23:55.243Z,5.25
2022-12-07T14:24:55.328Z,5.24
2022-12-07T14:25:55.218Z,5.21
2022-12-07T14:26:55.246Z,5.24
2022-12-07T14:27:55.244Z,5.24
2022-12-07T14:28:55.238Z,5.24
2022-12-07T14:29:55.169Z,5.24
2022-12-07T14:30:55.373Z,5.21
2022-12-07T14:31:55.141Z,5.17
2022-12-07T14:32:55.161Z,5.17
2022-12-07T14:33:55.111Z,5.13
2022-12-07T14:34:55.130Z,5.13
2022-12-07T14:35:55.101Z,5.12
2022-12-07T14:36:55.150Z,5.13
2022-12-07T14:37:55.069Z,5.13
2022-12-07T14:38:55.090Z,5.15
2022-12-07T14:39:55.079Z,5.18
2022-12-07T14:40:55.048Z,5.20
2022-12-07T14:41:55.017Z,5.21
2022-12-07T14:42:55.785Z,5.20
2022-12-07T14:44:55.995Z,5.17
2022-12-07T14:45:55.070Z,5.17
2022-12-07T14:49:56.684Z,5.10
2022-12-07T14:53:23.912Z,5.07
2022-12-07T14:53:57.427Z,5.06
2022-12-07T14:54:54.880Z,5.06
2022-12-07T14:55:54.833Z,5.04
2022-12-07T14:56:54.835Z,5.03
2022-12-07T14:57:54.818Z,5.02
2022-12-07T14:58:54.825Z,5.02
2022-12-07T14:59:54.832Z,5.02
2022-12-07T15:00:54.802Z,5.00
2022-12-07T15:01:54.852Z,4.97
2022-12-07T15:02:54.778Z,4.99
2022-12-07T15:03:54.768Z,4.99
2022-12-07T15:04:54.760Z,4.97
2022-12-07T15:05:54.774Z,4.97
2022-12-07T15:06:54.731Z,4.94
2022-12-07T15:07:54.727Z,4.92
2022-12-07T15:08:54.890Z,4.89
2022-12-07T15:09:54.680Z,4.89
2022-12-07T15:10:54.674Z,4.89
2022-12-07T15:11:54.640Z,4.88
2022-12-07T15:12:54.657Z,4.89
2022-12-07T15:13:54.609Z,4.86
2022-12-07T15:14:55.146Z,4.85
2022-12-07T15:15:54.641Z,4.85
2022-12-07T15:17:07.939Z,4.88
2022-12-07T15:17:55.828Z,4.86
2022-12-07T15:19:26.172Z,4.85
2022-12-07T15:19:57.373Z,4.82
2022-12-07T15:20:54.538Z,4.84
2022-12-07T15:21:54.516Z,4.84
2022-12-07T15:22:54.520Z,4.85
2022-12-07T15:23:54.491Z,4.84
2022-12-07T15:24:54.511Z,4.82
2022-12-07T15:25:54.498Z,4.78
2022-12-07T15:26:54.466Z,4.80
2022-12-07T15:27:54.447Z,4.78
2022-12-07T15:28:54.435Z,4.75
2022-12-07T15:29:54.429Z,4.75
2022-12-07T15:30:54.700Z,4.73
2022-12-07T15:31:56.319Z,4.75
2022-12-07T15:32:54.400Z,4.72
2022-12-07T15:33:54.373Z,4.73
2022-12-07T15:34:54.383Z,4.70
2022-12-07T15:35:54.362Z,4.69
2022-12-07T15:36:54.399Z,4.69
2022-12-07T15:37:54.404Z,4.69
2022-12-07T15:39:12.455Z,4.67
2022-12-07T15:39:55.285Z,4.66
2022-12-07T15:40:54.302Z,4.65
2022-12-07T15:41:54.260Z,4.65
2022-12-07T15:42:54.311Z,4.65
2022-12-07T15:43:54.259Z,4.65
2022-12-07T15:44:54.230Z,4.62
2022-12-07T15:45:54.269Z,4.60
2022-12-07T15:46:54.248Z,4.58
2022-12-07T15:48:27.983Z,4.54
2022-12-07T15:48:55.498Z,4.54
2022-12-07T15:49:55.848Z,4.54
2022-12-07T15:50:54.217Z,4.52
2022-12-07T15:51:54.142Z,4.51
2022-12-07T15:52:54.155Z,4.50
2022-12-07T15:53:54.103Z,4.51
2022-12-07T15:54:54.188Z,4.48
2022-12-07T15:55:54.085Z,4.50
2022-12-07T15:56:54.192Z,4.50
2022-12-07T15:57:54.074Z,4.52
2022-12-07T15:58:54.071Z,4.52
2022-12-07T15:59:54.066Z,4.54
2022-12-07T16:00:54.650Z,4.55
2022-12-07T16:01:54.039Z,4.55
2022-12-07T16:02:54.054Z,4.58
2022-12-07T16:03:53.983Z,4.58
2022-12-07T16:04:54.049Z,4.58
2022-12-07T16:05:53.951Z,4.60
2022-12-07T16:06:54.187Z,4.62
2022-12-07T16:07:53.961Z,4.63
2022-12-07T16:08:53.931Z,4.63
2022-12-07T16:09:53.933Z,4.63
2022-12-07T16:10:54.052Z,4.65
2022-12-07T16:11:53.889Z,4.66
2022-12-07T16:12:53.973Z,4.67
2022-12-07T16:13:53.891Z,4.67
2022-12-07T16:14:53.852Z,4.70
2022-12-07T16:15:53.991Z,4.70
2022-12-07T16:16:53.831Z,4.69
2022-12-07T16:17:53.789Z,4.67
2022-12-07T16:18:53.832Z,4.65
2022-12-07T16:19:53.820Z,4.65
2022-12-07T16:20:53.780Z,4.63
2022-12-07T16:21:53.758Z,4.63
2022-12-07T16:22:53.746Z,4.62
2022-12-07T16:23:54.458Z,4.62
2022-12-07T16:24:53.704Z,4.63
2022-12-07T16:25:53.853Z,4.65
2022-12-07T16:26:53.676Z,4.63
2022-12-07T16:27:53.695Z,4.63
2022-12-07T16:28:53.712Z,4.62
2022-12-07T16:29:53.666Z,4.62
2022-12-07T16:30:53.717Z,4.63
2022-12-07T16:31:53.975Z,4.65
2022-12-07T16:32:56.776Z,4.62
2022-12-07T16:33:54.614Z,4.62
2022-12-07T16:34:53.585Z,4.60
2022-12-07T16:35:53.593Z,4.59
2022-12-07T16:37:05.337Z,4.58
2022-12-07T16:37:54.773Z,4.58
2022-12-07T16:38:53.543Z,4.58
2022-12-07T16:39:53.549Z,4.55
2022-12-07T16:40:53.509Z,4.55
2022-12-07T16:41:53.510Z,4.54
2022-12-07T16:42:53.503Z,4.54
2022-12-07T16:43:53.753Z,4.54
2022-12-07T16:44:53.472Z,4.54
2022-12-07T16:45:53.460Z,4.55
2022-12-07T16:46:53.582Z,4.52
2022-12-07T16:47:53.430Z,4.51
2022-12-07T16:48:53.423Z,4.50
2022-12-07T16:49:53.501Z,4.50
2022-12-07T16:50:53.379Z,4.50
2022-12-07T16:52:14.710Z,4.48
2022-12-07T16:52:54.360Z,4.47
2022-12-07T16:53:53.381Z,4.47
2022-12-07T16:54:53.336Z,4.48
2022-12-07T16:55:54.585Z,4.48
2022-12-07T16:56:53.300Z,4.50
2022-12-07T16:57:53.348Z,4.51
2022-12-07T16:58:53.278Z,4.50
2022-12-07T16:59:53.337Z,4.51
2022-12-07T17:00:53.304Z,4.51
2022-12-07T17:01:53.468Z,4.50
2022-12-07T17:02:53.225Z,4.52
2022-12-07T17:03:53.319Z,4.50
2022-12-07T17:04:53.216Z,4.51
2022-12-07T17:05:53.205Z,4.51
2022-12-07T17:06:53.178Z,4.52
2022-12-07T17:07:53.558Z,4.52
2022-12-07T17:08:53.148Z,4.48
2022-12-07T17:09:53.226Z,4.48
2022-12-07T17:10:53.124Z,4.48
2022-12-07T17:11:53.138Z,4.50
2022-12-07T17:12:53.094Z,4.48
2022-12-07T17:13:53.207Z,4.47
2022-12-07T17:14:53.087Z,4.48
2022-12-07T17:15:53.127Z,4.50
2022-12-07T17:16:53.175Z,4.47
2022-12-07T17:17:53.062Z,4.44
2022-12-07T17:18:53.021Z,4.41
2022-12-07T17:19:53.242Z,4.41
2022-12-07T17:20:53.045Z,4.44
2022-12-07T17:21:53.031Z,4.41
2022-12-07T17:22:52.980Z,4.41
2022-12-07T17:23:52.977Z,4.44
2022-12-07T17:24:52.958Z,4.45
2022-12-07T17:25:53.190Z,4.47
2022-12-07T17:26:52.928Z,4.47
2022-12-07T17:27:53.018Z,4.47
2022-12-07T17:28:52.912Z,4.44
2022-12-07T17:29:52.900Z,4.42
2022-12-07T17:30:52.912Z,4.42
2022-12-07T17:31:53.198Z,4.41
2022-12-07T17:32:52.848Z,4.40
2022-12-07T17:33:52.950Z,4.36
2022-12-07T17:34:52.863Z,4.36
2022-12-07T17:35:52.847Z,4.34
2022-12-07T17:36:52.796Z,4.34
2022-12-07T17:37:52.919Z,4.32
2022-12-07T17:38:52.776Z,4.32
2022-12-07T17:39:52.775Z,4.34
2022-12-07T17:40:52.753Z,4.33
2022-12-07T17:41:52.753Z,4.32
2022-12-07T17:42:52.747Z,4.32
2022-12-07T17:43:52.763Z,4.30
2022-12-07T17:44:52.685Z,4.32
2022-12-07T17:45:52.757Z,4.30
2022-12-07T17:46:53.130Z,4.30
2022-12-07T17:47:52.685Z,4.29
2022-12-07T17:48:52.648Z,4.30
2022-12-07T17:49:52.667Z,4.27
2022-12-07T17:50:52.650Z,4.26
2022-12-07T17:51:52.621Z,4.24
2022-12-07T17:52:52.667Z,4.24
2022-12-07T17:53:52.610Z,4.24
2022-12-07T17:54:52.589Z,4.26
2022-12-07T17:56:26.356Z,4.27
2022-12-07T17:56:53.644Z,4.26
2022-12-07T17:57:52.558Z,4.27
2022-12-07T17:58:52.521Z,4.26
2022-12-07T17:59:52.539Z,4.26
2022-12-07T18:00:53.298Z,4.27
2022-12-07T18:01:52.609Z,4.27
2022-12-07T18:02:52.596Z,4.29
2022-12-07T18:03:52.477Z,4.26
2022-12-07T18:04:52.445Z,4.26
2022-12-07T18:05:52.468Z,4.26
2022-12-07T18:06:52.745Z,4.23
2022-12-07T18:07:52.469Z,4.23
2022-12-07T18:08:52.388Z,4.23
2022-12-07T18:09:52.414Z,4.18
2022-12-07T18:10:52.365Z,4.18
2022-12-07T18:11:55.598Z,4.18
2022-12-07T18:12:52.644Z,4.16
2022-12-07T18:13:52.363Z,4.18
2022-12-07T18:14:52.315Z,4.16
2022-12-07T18:15:52.415Z,4.16
2022-12-07T18:16:52.454Z,4.16
2022-12-07T18:17:54.863Z,4.16
2022-12-07T18:18:52.911Z,4.16
2022-12-07T18:19:52.272Z,4.15
2022-12-07T18:20:52.243Z,4.14
2022-12-07T18:21:52.271Z,4.14
2022-12-07T18:22:52.232Z,4.11
2022-12-07T18:23:52.492Z,4.11
2022-12-07T18:24:52.210Z,4.08
2022-12-07T18:25:52.224Z,4.08
2022-12-07T18:26:52.165Z,4.05
2022-12-07T18:27:52.201Z,4.05
2022-12-07T18:28:52.140Z,4.04
2022-12-07T18:29:53.072Z,4.04